sensor_id;sensor_type;location;lat;lon;timestamp;pressure;altitude;pressure_sealevel;temperature;humidity
77517;BME280;66628;53.946;27.634;2023-01-13T00:00:18;98896.234375;;;20.420000;27.963867
77517;BME280;66628;53.946;27.634;2023-01-13T00:01:19;98897.750000;;;20.410000;27.908203
77517;BME280;66628;53.946;27.634;2023-01-13T00:02:18;98900.203125;;;20.410000;27.952148
77517;BME280;66628;53.946;27.634;2023-01-13T00:03:18;98902.804688;;;20.420000;27.818359
77517;BME280;66628;53.946;27.634;2023-01-13T00:04:18;98906.546875;;;20.430000;27.863281
77517;BME280;66628;53.946;27.634;2023-01-13T00:05:18;98900.875000;;;20.430000;27.852539
77517;BME280;66628;53.946;27.634;2023-01-13T00:06:19;98901.875000;;;20.430000;27.909180
77517;BME280;66628;53.946;27.634;2023-01-13T00:07:18;98908.648438;;;20.430000;28.065430
77517;BME280;66628;53.946;27.634;2023-01-13T00:08:18;98911.000000;;;20.440001;28.033203
77517;BME280;66628;53.946;27.634;2023-01-13T00:09:18;98909.671875;;;20.430000;28.099609
77517;BME280;66628;53.946;27.634;2023-01-13T00:10:18;98911.281250;;;20.440001;28.078125
77517;BME280;66628;53.946;27.634;2023-01-13T00:11:19;98912.273438;;;20.440001;27.954102
77517;BME280;66628;53.946;27.634;2023-01-13T00:12:18;98913.101562;;;20.440001;28.211914
77517;BME280;66628;53.946;27.634;2023-01-13T00:13:18;98918.265625;;;20.450001;28.033203
77517;BME280;66628;53.946;27.634;2023-01-13T00:14:18;98914.468750;;;20.459999;27.854492
77517;BME280;66628;53.946;27.634;2023-01-13T00:15:18;98912.968750;;;20.450001;27.832031
77517;BME280;66628;53.946;27.634;2023-01-13T00:16:18;98912.546875;;;20.459999;28.000000
77517;BME280;66628;53.946;27.634;2023-01-13T00:17:18;98918.921875;;;20.450001;28.055664
77517;BME280;66628;53.946;27.634;2023-01-13T00:18:18;98917.320312;;;20.459999;28.034180
77517;BME280;66628;53.946;27.634;2023-01-13T00:19:18;98915.218750;;;20.459999;28.011719
77517;BME280;66628;53.946;27.634;2023-01-13T00:20:18;98915.500000;;;20.459999;28.022461
77517;BME280;66628;53.946;27.634;2023-01-13T00:21:19;98914.296875;;;20.469999;28.089844
77517;BME280;66628;53.946;27.634;2023-01-13T00:22:18;98918.890625;;;20.469999;28.068359
77517;BME280;66628;53.946;27.634;2023-01-13T00:23:18;98916.765625;;;20.480000;28.091797
77517;BME280;66628;53.946;27.634;2023-01-13T00:24:18;98909.125000;;;20.480000;27.979492
77517;BME280;66628;53.946;27.634;2023-01-13T00:25:18;98910.625000;;;20.480000;28.001953
77517;BME280;66628;53.946;27.634;2023-01-13T00:26:19;98912.500000;;;20.480000;28.036133
77517;BME280;66628;53.946;27.634;2023-01-13T00:27:18;98909.750000;;;20.480000;27.968750
77517;BME280;66628;53.946;27.634;2023-01-13T00:28:18;98911.140625;;;20.490000;27.957031
77517;BME280;66628;53.946;27.634;2023-01-13T00:29:18;98911.296875;;;20.500000;28.002930
77517;BME280;66628;53.946;27.634;2023-01-13T00:30:18;98911.093750;;;20.490000;28.046875
77517;BME280;66628;53.946;27.634;2023-01-13T00:31:19;98898.320312;;;20.490000;28.081055
77517;BME280;66628;53.946;27.634;2023-01-13T00:32:18;98903.218750;;;20.490000;28.036133
77517;BME280;66628;53.946;27.634;2023-01-13T00:33:18;98897.468750;;;20.500000;27.969727
77517;BME280;66628;53.946;27.634;2023-01-13T00:34:18;98901.820312;;;20.490000;28.036133
77517;BME280;66628;53.946;27.634;2023-01-13T00:35:18;98898.171875;;;20.500000;28.037109
77517;BME280;66628;53.946;27.634;2023-01-13T00:36:19;98902.046875;;;20.490000;28.081055
77517;BME280;66628;53.946;27.634;2023-01-13T00:37:18;98892.773438;;;20.490000;28.114258
77517;BME280;66628;53.946;27.634;2023-01-13T00:38:18;98892.140625;;;20.520000;28.082031
77517;BME280;66628;53.946;27.634;2023-01-13T00:39:18;98894.390625;;;20.520000;28.250977
77517;BME280;66628;53.946;27.634;2023-01-13T00:40:18;98889.421875;;;20.510000;28.294922
77517;BME280;66628;53.946;27.634;2023-01-13T00:41:20;98890.468750;;;20.500000;28.227539
77517;BME280;66628;53.946;27.634;2023-01-13T00:42:18;98884.875000;;;20.510000;28.250000
77517;BME280;66628;53.946;27.634;2023-01-13T00:43:18;98881.468750;;;20.520000;28.149414
77517;BME280;66628;53.946;27.634;2023-01-13T00:44:18;98885.687500;;;20.510000;28.126953
77517;BME280;66628;53.946;27.634;2023-01-13T00:45:18;98882.265625;;;20.520000;28.072266
77517;BME280;66628;53.946;27.634;2023-01-13T00:46:19;98878.445312;;;20.510000;28.002930
77517;BME280;66628;53.946;27.634;2023-01-13T00:47:18;98878.500000;;;20.520000;28.026367
77517;BME280;66628;53.946;27.634;2023-01-13T00:48:19;98876.046875;;;20.520000;28.026367
77517;BME280;66628;53.946;27.634;2023-01-13T00:49:18;98878.250000;;;20.520000;28.038086
77517;BME280;66628;53.946;27.634;2023-01-13T00:50:18;98870.921875;;;20.510000;28.070312
77517;BME280;66628;53.946;27.634;2023-01-13T00:51:19;98874.218750;;;20.530001;28.016602
77517;BME280;66628;53.946;27.634;2023-01-13T00:52:18;98867.093750;;;20.520000;27.993164
77517;BME280;66628;53.946;27.634;2023-01-13T00:53:18;98867.375000;;;20.530001;27.859375
77517;BME280;66628;53.946;27.634;2023-01-13T00:54:18;98867.820312;;;20.540001;27.881836
77517;BME280;66628;53.946;27.634;2023-01-13T00:55:18;98863.265625;;;20.540001;27.881836
77517;BME280;66628;53.946;27.634;2023-01-13T00:56:22;98864.671875;;;20.540001;27.881836
77517;BME280;66628;53.946;27.634;2023-01-13T00:57:18;98866.093750;;;20.530001;27.892578
77517;BME280;66628;53.946;27.634;2023-01-13T00:58:18;98859.171875;;;20.530001;27.847656
77517;BME280;66628;53.946;27.634;2023-01-13T00:59:18;98860.796875;;;20.530001;27.747070
77517;BME280;66628;53.946;27.634;2023-01-13T01:00:18;98859.718750;;;20.540001;27.703125
77517;BME280;66628;53.946;27.634;2023-01-13T01:01:20;98861.171875;;;20.540001;27.713867
77517;BME280;66628;53.946;27.634;2023-01-13T01:02:18;98862.195312;;;20.549999;27.770508
77517;BME280;66628;53.946;27.634;2023-01-13T01:03:18;98861.125000;;;20.540001;27.781250
77517;BME280;66628;53.946;27.634;2023-01-13T01:04:18;98862.390625;;;20.549999;27.748047
77517;BME280;66628;53.946;27.634;2023-01-13T01:05:18;98860.515625;;;20.559999;27.770508
77517;BME280;66628;53.946;27.634;2023-01-13T01:07:18;98851.765625;;;20.549999;27.624023
77517;BME280;66628;53.946;27.634;2023-01-13T01:08:18;98849.625000;;;20.540001;27.635742
77517;BME280;66628;53.946;27.634;2023-01-13T01:09:18;98844.968750;;;20.540001;27.668945
77517;BME280;66628;53.946;27.634;2023-01-13T01:10:18;98842.078125;;;20.530001;27.668945
77517;BME280;66628;53.946;27.634;2023-01-13T01:11:19;98841.898438;;;20.530001;27.702148
77517;BME280;66628;53.946;27.634;2023-01-13T01:12:18;98844.429688;;;20.520000;27.499023
77517;BME280;66628;53.946;27.634;2023-01-13T01:13:18;98841.531250;;;20.510000;27.610352
77517;BME280;66628;53.946;27.634;2023-01-13T01:14:18;98834.929688;;;20.520000;27.756836
77517;BME280;66628;53.946;27.634;2023-01-13T01:15:18;98833.554688;;;20.510000;27.632812
77517;BME280;66628;53.946;27.634;2023-01-13T01:16:19;98841.125000;;;20.530001;27.780273
77517;BME280;66628;53.946;27.634;2023-01-13T01:17:18;98830.765625;;;20.500000;27.812500
77517;BME280;66628;53.946;27.634;2023-01-13T01:18:18;98838.953125;;;20.510000;28.002930
77517;BME280;66628;53.946;27.634;2023-01-13T01:19:18;98838.828125;;;20.520000;27.981445
77517;BME280;66628;53.946;27.634;2023-01-13T01:20:18;98842.812500;;;20.510000;27.924805
77517;BME280;66628;53.946;27.634;2023-01-13T01:21:19;98836.265625;;;20.490000;27.923828
77517;BME280;66628;53.946;27.634;2023-01-13T01:22:18;98838.289062;;;20.469999;27.866211
77517;BME280;66628;53.946;27.634;2023-01-13T01:23:18;98842.515625;;;20.480000;27.844727
77517;BME280;66628;53.946;27.634;2023-01-13T01:24:18;98839.437500;;;20.480000;27.765625
77517;BME280;66628;53.946;27.634;2023-01-13T01:25:18;98844.515625;;;20.480000;27.687500
77517;BME280;66628;53.946;27.634;2023-01-13T01:26:19;98842.109375;;;20.480000;27.687500
77517;BME280;66628;53.946;27.634;2023-01-13T01:27:18;98847.007812;;;20.490000;27.643555
77517;BME280;66628;53.946;27.634;2023-01-13T01:28:18;98851.062500;;;20.500000;27.576172
77517;BME280;66628;53.946;27.634;2023-01-13T01:29:18;98848.312500;;;20.500000;27.632812
77517;BME280;66628;53.946;27.634;2023-01-13T01:30:18;98848.781250;;;20.510000;27.587891
77517;BME280;66628;53.946;27.634;2023-01-13T01:31:23;98851.000000;;;20.520000;27.488281
77517;BME280;66628;53.946;27.634;2023-01-13T01:32:18;98851.140625;;;20.540001;27.534180
77517;BME280;66628;53.946;27.634;2023-01-13T01:33:18;98844.796875;;;20.540001;27.544922
77517;BME280;66628;53.946;27.634;2023-01-13T01:34:18;98847.828125;;;20.540001;27.568359
77517;BME280;66628;53.946;27.634;2023-01-13T01:35:18;98842.171875;;;20.540001;27.544922
77517;BME280;66628;53.946;27.634;2023-01-13T01:36:19;98839.843750;;;20.559999;27.501953
77517;BME280;66628;53.946;27.634;2023-01-13T01:37:18;98835.093750;;;20.549999;27.422852
77517;BME280;66628;53.946;27.634;2023-01-13T01:38:18;98837.000000;;;20.559999;27.501953
77517;BME280;66628;53.946;27.634;2023-01-13T01:39:18;98837.265625;;;20.570000;27.524414
77517;BME280;66628;53.946;27.634;2023-01-13T01:40:18;98837.421875;;;20.549999;27.568359
77517;BME280;66628;53.946;27.634;2023-01-13T01:41:20;98833.515625;;;20.549999;27.602539
77517;BME280;66628;53.946;27.634;2023-01-13T01:42:18;98833.000000;;;20.549999;27.792969
77517;BME280;66628;53.946;27.634;2023-01-13T01:43:19;98831.351562;;;20.549999;27.894531
77517;BME280;66628;53.946;27.634;2023-01-13T01:45:20;98832.984375;;;20.580000;28.086914
77517;BME280;66628;53.946;27.634;2023-01-13T01:46:18;98827.343750;;;20.580000;28.120117
77517;BME280;66628;53.946;27.634;2023-01-13T01:47:18;98831.390625;;;20.559999;27.804688
77517;BME280;66628;53.946;27.634;2023-01-13T01:48:18;98828.421875;;;20.549999;27.827148
77517;BME280;66628;53.946;27.634;2023-01-13T01:49:28;98829.718750;;;20.559999;27.827148
77517;BME280;66628;53.946;27.634;2023-01-13T01:50:18;98826.375000;;;20.540001;27.870117
77517;BME280;66628;53.946;27.634;2023-01-13T01:51:18;98825.562500;;;20.530001;27.959961
77517;BME280;66628;53.946;27.634;2023-01-13T01:52:23;98825.312500;;;20.520000;27.869141
77517;BME280;66628;53.946;27.634;2023-01-13T01:53:18;98832.265625;;;20.500000;28.037109
77517;BME280;66628;53.946;27.634;2023-01-13T01:54:19;98830.835938;;;20.490000;27.991211
77517;BME280;66628;53.946;27.634;2023-01-13T01:55:19;98825.320312;;;20.480000;27.934570
77517;BME280;66628;53.946;27.634;2023-01-13T01:56:18;98816.765625;;;20.469999;27.888672
77517;BME280;66628;53.946;27.634;2023-01-13T01:57:20;98820.000000;;;20.459999;27.933594
77517;BME280;66628;53.946;27.634;2023-01-13T01:58:23;98814.953125;;;20.450001;27.932617
77517;BME280;66628;53.946;27.634;2023-01-13T01:59:18;98820.031250;;;20.440001;28.021484
77517;BME280;66628;53.946;27.634;2023-01-13T02:00:18;98810.906250;;;20.430000;27.976562
77517;BME280;66628;53.946;27.634;2023-01-13T02:01:18;98809.757812;;;20.420000;28.121094
77517;BME280;66628;53.946;27.634;2023-01-13T02:02:18;98806.539062;;;20.420000;28.076172
77517;BME280;66628;53.946;27.634;2023-01-13T02:03:18;98801.796875;;;20.410000;28.143555
77517;BME280;66628;53.946;27.634;2023-01-13T02:04:19;98798.492188;;;20.400000;28.075195
77517;BME280;66628;53.946;27.634;2023-01-13T02:05:18;98809.843750;;;20.400000;28.075195
77517;BME280;66628;53.946;27.634;2023-01-13T02:06:18;98807.000000;;;20.389999;28.165039
77517;BME280;66628;53.946;27.634;2023-01-13T02:07:19;98804.718750;;;20.389999;28.165039
77517;BME280;66628;53.946;27.634;2023-01-13T02:08:18;98798.718750;;;20.389999;28.208984
77517;BME280;66628;53.946;27.634;2023-01-13T02:09:18;98800.953125;;;20.389999;28.186523
77517;BME280;66628;53.946;27.634;2023-01-13T02:10:19;98801.953125;;;20.389999;28.186523
77517;BME280;66628;53.946;27.634;2023-01-13T02:12:18;98800.023438;;;20.389999;28.253906
77517;BME280;66628;53.946;27.634;2023-01-13T02:13:18;98804.593750;;;20.379999;28.297852
77517;BME280;66628;53.946;27.634;2023-01-13T02:14:21;98797.304688;;;20.370001;28.173828
77517;BME280;66628;53.946;27.634;2023-01-13T02:15:21;98795.906250;;;20.370001;28.241211
77517;BME280;66628;53.946;27.634;2023-01-13T02:16:20;98797.179688;;;20.370001;28.275391
77517;BME280;66628;53.946;27.634;2023-01-13T02:30:25;98796.390625;;;20.430000;28.514648
77517;BME280;66628;53.946;27.634;2023-01-13T02:31:18;98798.210938;;;20.420000;28.435547
77517;BME280;66628;53.946;27.634;2023-01-13T02:32:19;98797.039062;;;20.430000;28.435547
77517;BME280;66628;53.946;27.634;2023-01-13T02:37:03;98783.820312;;;20.440001;28.649414
77517;BME280;66628;53.946;27.634;2023-01-13T02:37:20;98778.039062;;;20.450001;28.638672
77517;BME280;66628;53.946;27.634;2023-01-13T02:38:20;98777.187500;;;20.459999;28.583984
77517;BME280;66628;53.946;27.634;2023-01-13T02:39:26;98770.812500;;;20.459999;28.482422
77517;BME280;66628;53.946;27.634;2023-01-13T02:42:22;98776.656250;;;20.469999;28.651367
77517;BME280;66628;53.946;27.634;2023-01-13T02:44:19;98772.234375;;;20.459999;28.426758
77517;BME280;66628;53.946;27.634;2023-01-13T02:45:20;98772.765625;;;20.459999;28.314453
77517;BME280;66628;53.946;27.634;2023-01-13T02:47:27;98775.250000;;;20.440001;28.291016
77517;BME280;66628;53.946;27.634;2023-01-13T02:48:19;98775.070312;;;20.440001;28.335938
77517;BME280;66628;53.946;27.634;2023-01-13T02:49:30;98777.515625;;;20.440001;28.324219
77517;BME280;66628;53.946;27.634;2023-01-13T02:50:19;98780.484375;;;20.450001;28.347656
77517;BME280;66628;53.946;27.634;2023-01-13T02:51:19;98780.218750;;;20.430000;28.312500
77517;BME280;66628;53.946;27.634;2023-01-13T02:52:22;98777.976562;;;20.420000;28.311523
77517;BME280;66628;53.946;27.634;2023-01-13T02:53:20;98781.398438;;;20.420000;28.368164
77517;BME280;66628;53.946;27.634;2023-01-13T02:54:19;98777.921875;;;20.420000;28.368164
77517;BME280;66628;53.946;27.634;2023-01-13T02:55:22;98777.031250;;;20.420000;28.413086
77517;BME280;66628;53.946;27.634;2023-01-13T02:56:18;98775.671875;;;20.430000;28.525391
77517;BME280;66628;53.946;27.634;2023-01-13T02:57:18;98781.640625;;;20.430000;28.357422
77517;BME280;66628;53.946;27.634;2023-01-13T02:58:20;98778.070312;;;20.430000;28.481445
77517;BME280;66628;53.946;27.634;2023-01-13T02:59:18;98772.781250;;;20.420000;28.446289
77517;BME280;66628;53.946;27.634;2023-01-13T03:00:18;98774.304688;;;20.420000;28.457031
77517;BME280;66628;53.946;27.634;2023-01-13T03:01:18;98776.875000;;;20.410000;28.457031
77517;BME280;66628;53.946;27.634;2023-01-13T03:02:18;98774.726562;;;20.410000;28.434570
77517;BME280;66628;53.946;27.634;2023-01-13T03:03:18;98779.203125;;;20.420000;28.457031
77517;BME280;66628;53.946;27.634;2023-01-13T03:05:18;98776.351562;;;20.410000;28.501953
77517;BME280;66628;53.946;27.634;2023-01-13T03:09:21;98788.773438;;;20.410000;28.648438
77517;BME280;66628;53.946;27.634;2023-01-13T03:10:21;98791.820312;;;20.410000;28.468750
77517;BME280;66628;53.946;27.634;2023-01-13T03:11:18;98794.718750;;;20.410000;28.648438
77517;BME280;66628;53.946;27.634;2023-01-13T03:14:04;98798.812500;;;20.410000;28.491211
77517;BME280;66628;53.946;27.634;2023-01-13T03:14:22;98802.640625;;;20.420000;28.546875
77517;BME280;66628;53.946;27.634;2023-01-13T03:18:22;98800.492188;;;20.410000;28.524414
77517;BME280;66628;53.946;27.634;2023-01-13T03:19:24;98802.265625;;;20.400000;28.457031
77517;BME280;66628;53.946;27.634;2023-01-13T03:20:20;98798.578125;;;20.379999;28.421875
77517;BME280;66628;53.946;27.634;2023-01-13T03:23:20;98801.125000;;;20.389999;28.523438
77517;BME280;66628;53.946;27.634;2023-01-13T03:25:21;98801.093750;;;20.400000;28.478516
77517;BME280;66628;53.946;27.634;2023-01-13T03:30:22;98791.632812;;;20.379999;28.488281
77517;BME280;66628;53.946;27.634;2023-01-13T03:31:20;98785.281250;;;20.379999;28.477539
77517;BME280;66628;53.946;27.634;2023-01-13T03:34:20;98776.906250;;;20.389999;28.613281
77517;BME280;66628;53.946;27.634;2023-01-13T03:35:20;98777.453125;;;20.389999;28.512695
77517;BME280;66628;53.946;27.634;2023-01-13T03:36:18;98776.593750;;;20.379999;28.410156
77517;BME280;66628;53.946;27.634;2023-01-13T03:37:19;98775.265625;;;20.370001;28.443359
77517;BME280;66628;53.946;27.634;2023-01-13T03:38:20;98774.789062;;;20.370001;28.500000
77517;BME280;66628;53.946;27.634;2023-01-13T03:39:19;98773.390625;;;20.370001;28.477539
77517;BME280;66628;53.946;27.634;2023-01-13T03:40:22;98774.156250;;;20.379999;28.634766
77517;BME280;66628;53.946;27.634;2023-01-13T03:41:22;98777.593750;;;20.370001;28.510742
77517;BME280;66628;53.946;27.634;2023-01-13T03:42:19;98775.609375;;;20.370001;28.521484
77517;BME280;66628;53.946;27.634;2023-01-13T03:43:19;98771.640625;;;20.370001;28.522461
77517;BME280;66628;53.946;27.634;2023-01-13T03:44:23;98769.921875;;;20.370001;28.510742
77517;BME280;66628;53.946;27.634;2023-01-13T03:45:18;98770.218750;;;20.360001;28.521484
77517;BME280;66628;53.946;27.634;2023-01-13T03:46:24;98762.921875;;;20.370001;28.454102
77517;BME280;66628;53.946;27.634;2023-01-13T03:47:23;98767.890625;;;20.360001;28.521484
77517;BME280;66628;53.946;27.634;2023-01-13T03:48:18;98762.515625;;;20.360001;28.488281
77517;BME280;66628;53.946;27.634;2023-01-13T03:49:19;98764.539062;;;20.379999;28.533203
77517;BME280;66628;53.946;27.634;2023-01-13T03:50:19;98758.750000;;;20.379999;28.533203
77517;BME280;66628;53.946;27.634;2023-01-13T03:51:18;98755.171875;;;20.360001;28.543945
77517;BME280;66628;53.946;27.634;2023-01-13T03:52:21;98757.148438;;;20.370001;28.611328
77517;BME280;66628;53.946;27.634;2023-01-13T03:53:19;98756.523438;;;20.360001;28.533203
77517;BME280;66628;53.946;27.634;2023-01-13T03:54:18;98760.203125;;;20.360001;28.611328
77517;BME280;66628;53.946;27.634;2023-01-13T03:55:20;98763.664062;;;20.379999;28.768555
77517;BME280;66628;53.946;27.634;2023-01-13T03:57:18;98755.171875;;;20.360001;28.566406
77517;BME280;66628;53.946;27.634;2023-01-13T03:58:27;98761.968750;;;20.370001;28.578125
77517;BME280;66628;53.946;27.634;2023-01-13T03:59:19;98755.796875;;;20.379999;28.634766
77517;BME280;66628;53.946;27.634;2023-01-13T04:00:18;98758.289062;;;20.379999;28.668945
77517;BME280;66628;53.946;27.634;2023-01-13T04:02:20;98755.968750;;;20.379999;28.679688
77517;BME280;66628;53.946;27.634;2023-01-13T04:03:19;98752.695312;;;20.379999;28.657227
77517;BME280;66628;53.946;27.634;2023-01-13T04:04:20;98753.453125;;;20.370001;28.657227
77517;BME280;66628;53.946;27.634;2023-01-13T04:05:18;98754.375000;;;20.350000;28.688477
77517;BME280;66628;53.946;27.634;2023-01-13T04:07:37;98753.203125;;;20.360001;28.623047
77517;BME280;66628;53.946;27.634;2023-01-13T04:08:19;98752.062500;;;20.350000;28.677734
77517;BME280;66628;53.946;27.634;2023-01-13T04:10:22;98747.109375;;;20.340000;28.811523
77517;BME280;66628;53.946;27.634;2023-01-13T04:11:21;98749.601562;;;20.360001;28.834961
77517;BME280;66628;53.946;27.634;2023-01-13T04:13:19;98749.601562;;;20.360001;28.947266
77517;BME280;66628;53.946;27.634;2023-01-13T04:14:18;98750.812500;;;20.350000;28.767578
77517;BME280;66628;53.946;27.634;2023-01-13T04:15:19;98747.460938;;;20.340000;28.856445
77517;BME280;66628;53.946;27.634;2023-01-13T04:16:18;98744.703125;;;20.360001;28.890625
77517;BME280;66628;53.946;27.634;2023-01-13T04:17:18;98743.828125;;;20.360001;28.834961
77517;BME280;66628;53.946;27.634;2023-01-13T04:18:25;98744.585938;;;20.350000;28.833984
77517;BME280;66628;53.946;27.634;2023-01-13T04:19:18;98744.179688;;;20.360001;28.790039
77517;BME280;66628;53.946;27.634;2023-01-13T04:20:18;98743.835938;;;20.350000;28.800781
77517;BME280;66628;53.946;27.634;2023-01-13T04:21:18;98743.054688;;;20.360001;28.835938
77517;BME280;66628;53.946;27.634;2023-01-13T04:22:18;98746.734375;;;20.350000;28.833984
77517;BME280;66628;53.946;27.634;2023-01-13T04:23:19;98748.890625;;;20.350000;28.834961
77517;BME280;66628;53.946;27.634;2023-01-13T04:24:18;98744.460938;;;20.350000;28.811523
77517;BME280;66628;53.946;27.634;2023-01-13T04:25:18;98749.226562;;;20.360001;28.903320
77517;BME280;66628;53.946;27.634;2023-01-13T04:26:18;98751.625000;;;20.360001;28.891602
77517;BME280;66628;53.946;27.634;2023-01-13T04:27:18;98751.953125;;;20.370001;28.903320
77517;BME280;66628;53.946;27.634;2023-01-13T04:28:18;98752.531250;;;20.370001;28.948242
77517;BME280;66628;53.946;27.634;2023-01-13T04:29:18;98752.117188;;;20.379999;28.959961
77517;BME280;66628;53.946;27.634;2023-01-13T04:30:18;98750.070312;;;20.379999;29.016602
77517;BME280;66628;53.946;27.634;2023-01-13T04:31:18;98746.093750;;;20.379999;29.039062
77517;BME280;66628;53.946;27.634;2023-01-13T04:32:18;98743.898438;;;20.379999;28.993164
77517;BME280;66628;53.946;27.634;2023-01-13T04:33:18;98743.648438;;;20.379999;29.004883
77517;BME280;66628;53.946;27.634;2023-01-13T04:34:18;98741.906250;;;20.370001;29.038086
77517;BME280;66628;53.946;27.634;2023-01-13T04:35:18;98737.460938;;;20.360001;29.126953
77517;BME280;66628;53.946;27.634;2023-01-13T04:36:18;98736.757812;;;20.360001;29.104492
77517;BME280;66628;53.946;27.634;2023-01-13T04:37:18;98736.109375;;;20.360001;29.071289
77517;BME280;66628;53.946;27.634;2023-01-13T04:38:19;98738.468750;;;20.350000;29.070312
77517;BME280;66628;53.946;27.634;2023-01-13T04:39:18;98737.640625;;;20.350000;29.148438
77517;BME280;66628;53.946;27.634;2023-01-13T04:40:18;98738.234375;;;20.360001;29.250000
77517;BME280;66628;53.946;27.634;2023-01-13T04:41:18;98737.062500;;;20.360001;29.250000
77517;BME280;66628;53.946;27.634;2023-01-13T04:42:18;98746.625000;;;20.360001;29.350586
77517;BME280;66628;53.946;27.634;2023-01-13T04:43:18;98743.179688;;;20.360001;29.227539
77517;BME280;66628;53.946;27.634;2023-01-13T04:44:18;98742.890625;;;20.350000;29.238281
77517;BME280;66628;53.946;27.634;2023-01-13T04:45:18;98739.460938;;;20.360001;29.294922
77517;BME280;66628;53.946;27.634;2023-01-13T04:46:18;98739.984375;;;20.360001;29.339844
77517;BME280;66628;53.946;27.634;2023-01-13T04:47:18;98739.656250;;;20.370001;29.351562
77517;BME280;66628;53.946;27.634;2023-01-13T04:48:18;98745.335938;;;20.350000;29.361328
77517;BME280;66628;53.946;27.634;2023-01-13T04:49:18;98742.804688;;;20.370001;29.329102
77517;BME280;66628;53.946;27.634;2023-01-13T04:50:18;98738.390625;;;20.350000;29.328125
77517;BME280;66628;53.946;27.634;2023-01-13T04:51:18;98738.757812;;;20.360001;29.384766
77517;BME280;66628;53.946;27.634;2023-01-13T04:52:18;98745.453125;;;20.379999;29.351562
77517;BME280;66628;53.946;27.634;2023-01-13T04:53:18;98742.078125;;;20.370001;29.396484
77517;BME280;66628;53.946;27.634;2023-01-13T04:54:18;98744.734375;;;20.370001;29.429688
77517;BME280;66628;53.946;27.634;2023-01-13T04:55:19;98742.578125;;;20.360001;29.519531
77517;BME280;66628;53.946;27.634;2023-01-13T04:56:18;98740.453125;;;20.370001;29.609375
77517;BME280;66628;53.946;27.634;2023-01-13T04:57:18;98735.812500;;;20.370001;29.597656
77517;BME280;66628;53.946;27.634;2023-01-13T04:58:18;98739.304688;;;20.370001;29.609375
77517;BME280;66628;53.946;27.634;2023-01-13T04:59:18;98737.078125;;;20.379999;29.643555
77517;BME280;66628;53.946;27.634;2023-01-13T05:00:19;98736.273438;;;20.389999;29.599609
77517;BME280;66628;53.946;27.634;2023-01-13T05:01:18;98738.625000;;;20.389999;29.622070
77517;BME280;66628;53.946;27.634;2023-01-13T05:02:18;98741.101562;;;20.379999;29.699219
77517;BME280;66628;53.946;27.634;2023-01-13T05:03:18;98744.875000;;;20.370001;29.542969
77517;BME280;66628;53.946;27.634;2023-01-13T05:04:18;98746.171875;;;20.379999;29.631836
77517;BME280;66628;53.946;27.634;2023-01-13T05:05:18;98744.046875;;;20.389999;29.656250
77517;BME280;66628;53.946;27.634;2023-01-13T05:06:18;98744.296875;;;20.379999;29.644531
77517;BME280;66628;53.946;27.634;2023-01-13T05:07:18;98741.226562;;;20.389999;29.790039
77517;BME280;66628;53.946;27.634;2023-01-13T05:08:18;98740.921875;;;20.400000;29.846680
77517;BME280;66628;53.946;27.634;2023-01-13T05:09:18;98741.343750;;;20.400000;29.813477
77517;BME280;66628;53.946;27.634;2023-01-13T05:10:18;98741.992188;;;20.400000;29.689453
77517;BME280;66628;53.946;27.634;2023-01-13T05:11:18;98739.062500;;;20.400000;29.701172
77517;BME280;66628;53.946;27.634;2023-01-13T05:12:18;98732.500000;;;20.389999;29.790039
77517;BME280;66628;53.946;27.634;2023-01-13T05:13:18;98736.453125;;;20.389999;30.092773
77517;BME280;66628;53.946;27.634;2023-01-13T05:14:18;98730.101562;;;20.389999;29.767578
77517;BME280;66628;53.946;27.634;2023-01-13T05:15:18;98728.156250;;;20.379999;29.744141